Michalis Papagiannopoulos

Scout - Panathinaikos
20 Feb 2028
Sunday
Process

Personality

Adaptability (17) Ambition (1) Controversy (20) Loyalty (16) Pressure (5) Professionalism (11) Sportsmanship (3) Temperament (10)

Profile

Coaching Style Democratic
License Continental Pro
Determination 14
Man Management 13
Motivating 13
Discipline 11
Job Satisfaction
79%
Fatigue
0%
Role Scout
Wage 50.9K p/w
Contract 14.03.2030

Performance

Behaviour Good
Training Effectiveness
49%
Player Development
55%
Injury Prevention
60%
Tactical Implementation
65%

Recent Events

Attended a recruitment meeting 7d ago
Attended a recruitment meeting 14d ago
Recommended a transfer target 14d ago
Attended a recruitment meeting 21d ago
Attended a recruitment meeting 21d ago
Attending professional development 28d ago
Attending professional development 28d ago
Attending professional development 28d ago

Currently Monitoring

117
Player Club Status Ability Confidence Watched Last Observed Latest Vote
Giannis Apostolakis OFI Lost 124 / 112 79% 1 31.01.2028 Approve
Aitor Cantalapiedra OFI Lost 127 / 130 79% 1 02.01.2028 Approve
Manuel Ospina Cortulua Active 136 / 122 40% 1 31.12.2027 -
Henry Mosquera Bragantino Active 132 / 126 40% 1 31.12.2027 -
Mateo Silvetti Los Angeles Football Club Active 130 / 112 40% 5 04.12.2027 -
Luca Williams-Barnett Tranmere Rovers Active 118 / 120 40% 1 04.12.2027 -
David Valencia Alianza Petrolera Active 127 / 137 40% 4 01.12.2027 -
Joel Ezra Enyimba Active 93 / 89 40% 3 01.12.2027 -
Musa Malik Ikorodu City Active 100 / 106 40% 4 29.11.2027 -
Christos Mouzakitis Hull City Active 137 / 136 40% 1 29.11.2027 -
Josh Nichols Tranmere Rovers Active 119 / 116 40% 1 29.11.2027 -
Hervin Goyes Deportivo Pasto Active 111 / 103 40% 3 28.11.2027 -
Maren Kefas Plateau United Active 84 / 93 40% 2 28.11.2027 -
Dylan Cabral Arsenal Active 105 / 98 40% 2 28.11.2027 -
Rio Ngumoha Stockport County Active 139 / 150 40% 1 27.11.2027 -
Mads Bomholt Stabaek Active 113 / 112 40% 3 21.11.2027 -
Matías Lozano Deportivo Pasto Active 106 / 117 40% 1 21.11.2027 -
Santiago López Independiente Active 118 / 135 40% 2 19.11.2027 -
Clement Bischoff Red Bull Salzburg Active 133 / 138 40% 2 16.11.2027 -
Sebastián Ramírez Jaguares Active 108 / 119 40% 3 13.11.2027 -
Diogo Guzmán Montevideo City Torque Active 111 / 120 40% 4 13.11.2027 -
Kauã Moraes Cruzeiro Active 132 / 122 40% 1 13.11.2027 -
Mateo Peralta Danubio Active 118 / 128 40% 4 09.11.2027 -
Fillip Jenssen Riise Stabaek Active 93 / 109 40% 1 09.11.2027 -
Luis Otávio Colorado Rapids Active 102 / 109 40% 2 31.10.2027 -
Themba Dala Ajax Cape Town Active 123 / 119 40% 2 31.10.2027 -
Kauã Elias Anderlecht Active 141 / 140 40% 1 26.10.2027 -
Esteban de Lima Tacuarembo Active 98 / 97 40% 1 21.10.2027 -
Oscar Otero Atletico Venezuela Active 97 / 97 40% 4 13.10.2027 -
Joel Medina Independiente Active 108 / 123 40% 2 13.10.2027 -
Juan Rodríguez Wanderers Active 98 / 106 40% 1 11.10.2027 -
Gustavo Lozano Metropolitanos Active 95 / 106 40% 2 06.10.2027 -
Felipe Serrés Wanderers Active 91 / 95 40% 1 14.09.2027 -
Mauro Carrizo Atlético Tucumán Active 105 / 104 40% 1 09.09.2027 -
Mamoutou Berthé US Bougouba Active 98 / 97 40% 1 07.09.2027 -
Augusto Berrondo Tristán Suárez Active 109 / 98 40% 1 01.09.2027 -
Santiago Sala Güemes Active 110 / 123 40% 1 01.09.2027 -
Tiziano Dornell Danubio Active 120 / 116 40% 1 01.09.2027 -
Youssef En-Nesyri Al-Ittihad Active 139 / 156 40% 1 31.05.2027 -
Koki Saito Queens Park Rangers Active 123 / 125 40% 1 28.05.2027 -
Jack McGlynn Stoke City Active 126 / 130 40% 1 28.05.2027 -
Kwadwo Baah Watford Active 127 / 118 40% 3 27.05.2027 -
Ethan Galbraith Swansea City Active 134 / 125 40% 3 27.05.2027 -
Harry Clarke Preston Active 134 / 137 40% 6 27.05.2027 -
Dennis Cirkin Queens Park Rangers Active 132 / 123 40% 3 27.05.2027 -
Milan van Ewijk Mansfield Town Active 134 / 131 40% 4 25.05.2027 -
Derry Murkin Derby County Active 123 / 124 40% 3 25.05.2027 -
Jacques Ekomié Wrexham Active 135 / 139 40% 1 25.05.2027 -
Jason Knight Bristol City Active 125 / 123 40% 2 24.05.2027 -
Ali Ahmed Norwich City Active 125 / 115 40% 3 23.05.2027 -
Morgan Whittaker Middlesbrough Active 133 / 132 40% 2 23.05.2027 -
Riley McGree Middlesbrough Active 127 / 132 40% 2 22.05.2027 -
Ilyas Ansah Hull City Active 132 / 142 40% 2 22.05.2027 -
Callum O'Hare Sheffield United Active 127 / 121 40% 1 22.05.2027 -
Kasey McAteer Ipswich Town Active 128 / 136 40% 4 21.05.2027 -
Isaiah Jones Luton Town Active 123 / 113 40% 3 21.05.2027 -
Scott Twine Bristol City Active 132 / 118 40% 2 20.05.2027 -
Othmane Maamma Watford Active 123 / 136 40% 5 20.05.2027 -
Derensili Sanches Fernandes Huddersfield Town Active 127 / 116 40% 2 20.05.2027 -
Shea Charles Southampton Active 133 / 134 40% 2 18.05.2027 -
Finn Azaz Southampton Active 131 / 137 40% 2 17.05.2027 -
David Turnbull Cardiff City Active 120 / 121 40% 2 17.05.2027 -
Million Manhoef Stoke City Active 123 / 125 40% 1 17.05.2027 -
Tomáš Rigo Stoke City Active 130 / 134 40% 2 16.05.2027 -
Sorba Thomas Stoke City Active 129 / 134 40% 2 15.05.2027 -
Sascha Britschgi Padova Active 124 / 118 40% 1 15.05.2027 -
Valentin Atangana Al-Ahli Active 126 / 147 40% 1 15.05.2027 -
Matías Gómez Granada Active 109 / 122 40% 1 12.05.2027 -
Jofre Torrents Ajax Active 117 / 127 40% 1 12.05.2027 -
Adam Bakoune Ospitaletto Active 98 / 107 40% 1 12.05.2027 -
Mirko Topić Norwich City Active 115 / 111 40% 1 11.05.2027 -
Zeidane Inoussa Swansea City Active 119 / 113 40% 3 10.05.2027 -
Andre Brooks Sheffield United Active 130 / 132 40% 1 10.05.2027 -
Caleb Yirenkyi Coventry City Active 133 / 142 40% 2 08.05.2027 -
Matvey Kislyak CSKA Moscow Active 138 / 147 40% 1 08.05.2027 -
Riley Owen Trento Active 106 / 109 40% 1 08.05.2027 -
Joe Gelhardt Hull City Active 132 / 141 40% 1 07.05.2027 -
Max Bird Birmingham Active 130 / 136 40% 5 06.05.2027 -
Hany Mukhtar Spezia Active 144 / 143 40% 1 06.05.2027 Needs More Info
Davide Bartesaghi AC Milan Active 131 / 140 40% 1 05.05.2027 -
Dylan Lawlor Cardiff City Active 120 / 129 40% 1 05.05.2027 -
Oumar Solet Udinese Active 142 / 150 40% 2 03.05.2027 -
Darlin Yongwa Norwich City Active 121 / 117 40% 1 03.05.2027 -
Bosun Lawal Stoke City Active 125 / 135 40% 1 03.05.2027 -
Fer López Wolverhampton Active 132 / 132 40% 1 30.04.2027 -
Armando Broja Burnley Active 136 / 134 40% 1 29.04.2027 -
Hlompho Lorch Ajax Cape Town Active 94 / 92 40% 1 29.04.2027 -
Welington Southampton Active 127 / 130 40% 5 22.04.2027 -
Toby Collyer West Bromwich Albion Active 130 / 124 40% 1 21.04.2027 -
Zian Flemming Ipswich Town Active 132 / 135 40% 1 20.04.2027 -
Richard Koné Queens Park Rangers Active 119 / 122 40% 3 19.04.2027 -
Ronald Swansea City Active 123 / 137 40% 2 19.04.2027 -
Florentino Luís Ipswich Town Active 137 / 151 40% 2 19.04.2027 -
Ross McCrorie Bristol City Active 127 / 136 40% 1 19.04.2027 -
Bertrand Traoré Sunderland Active 131 / 135 40% 1 18.04.2027 -
Tyrese Campbell Sheffield United Active 127 / 126 40% 1 12.04.2027 -
Nicolas Madsen Queens Park Rangers Active 134 / 122 40% 1 12.04.2027 -
Luke McNally Bristol City Active 134 / 124 40% 1 12.04.2027 -
Paris Maghoma Norwich City Active 118 / 126 40% 1 08.04.2027 -
Sayfallah Ltaief Cracovia Active 120 / 125 40% 1 06.04.2027 -
Isaac Price West Bromwich Albion Active 131 / 128 40% 1 05.04.2027 -
Josh Tymon Swansea City Active 120 / 120 40% 1 05.04.2027 -
Aidan Morris Middlesbrough Active 129 / 136 40% 1 04.04.2027 -
Lucas Da Cunha Como Active 148 / 143 40% 1 01.04.2027 -
Callum Doyle Wrexham Active 134 / 138 40% 1 01.04.2027 -
Mandla Erasmus SuperSport United Active 124 / 118 40% 3 28.03.2027 -
Kwame Poku Queens Park Rangers Active 121 / 113 40% 1 28.03.2027 -
Marcelo Allende Mamelodi Sundowns Active 141 / 143 40% 1 25.03.2027 -
Christian Krasnodar Active 131 / 125 40% 3 23.03.2027 -
Marquinhos Spartak Moscow Active 127 / 119 40% 1 23.03.2027 -
Bradley Tau SuperSport United Active 127 / 128 40% 1 18.03.2027 -
Anel Ahmedhodžić Burnley Active 130 / 136 40% 1 18.03.2027 -
Kristoffer Lund Birmingham Active 132 / 123 40% 1 17.03.2027 -
Adam Randell Bristol City Active 128 / 129 40% 1 15.03.2027 -
Oliver Skipp Leicester City Active 134 / 121 40% 1 09.03.2027 -
Nadir Zortea Bologna Active 139 / 146 40% 1 09.03.2027 -
Edoardo Bove Watford Active 127 / 137 40% 1 08.03.2027 -